Terminal Aerodrome Forecast
Issued by NWS Charleston, SC

Home | Current Version | Previous Version | Text Only | Print | Product List | Glossary On
Versions: 1 2 3 4 5 6 7 8 9 10 11 12 13 14 15 16 17 18 19 20 21 22 23 24 25 26 27 28 29 30 31
000
FTUS42 KCHS 252300
TAFCHS
TAF
KCHS 252320Z 2600/2624 20007KT P6SM FEW250
     FM260700 23009KT P6SM SCT035 BKN120
     FM261400 28013G19KT P6SM BKN035
     FM261700 28017G27KT P6SM BKN040=

USA.gov is the U.S. government's official web portal to all federal, state and local government web resources and services.